createdAt,value
2022-08-17T00:02:25.531Z,22.39
2022-08-17T00:04:54.105Z,22.38
2022-08-17T00:07:20.681Z,22.47
2022-08-17T00:09:47.261Z,22.49
2022-08-17T00:12:43.465Z,22.51
2022-08-17T00:15:01.127Z,22.45
2022-08-17T00:17:27.981Z,22.47
2022-08-17T00:19:54.602Z,22.46
2022-08-17T00:22:32.649Z,22.33
2022-08-17T00:25:08.077Z,22.22
2022-08-17T00:27:35.217Z,22.26
2022-08-17T00:30:01.880Z,22.27
2022-08-17T00:33:16.082Z,22.25
2022-08-17T00:35:18.473Z,22.21
2022-08-17T00:37:45.507Z,22.29
2022-08-17T00:40:14.621Z,22.21
2022-08-17T00:42:43.418Z,22.24
2022-08-17T00:45:12.815Z,22.23
2022-08-17T00:47:40.256Z,22.27
2022-08-17T00:50:12.019Z,22.24
2022-08-17T00:52:45.875Z,22.13
2022-08-17T00:55:12.827Z,22.00
2022-08-17T00:57:44.667Z,21.89
2022-08-17T01:00:21.416Z,21.94
2022-08-17T01:02:48.743Z,21.98
2022-08-17T01:05:19.518Z,22.06
2022-08-17T01:07:49.397Z,21.90
2022-08-17T01:10:57.501Z,21.93
2022-08-17T01:13:04.599Z,21.99
2022-08-17T01:15:37.165Z,22.03
2022-08-17T01:18:07.846Z,22.07
2022-08-17T01:20:48.159Z,21.97
2022-08-17T01:23:16.406Z,21.89
2022-08-17T01:25:50.994Z,21.96
2022-08-17T01:28:53.449Z,21.88
2022-08-17T01:31:06.237Z,21.85
2022-08-17T01:33:33.206Z,21.77
2022-08-17T01:36:00.751Z,21.86
2022-08-17T01:38:31.737Z,21.73
2022-08-17T01:41:05.857Z,21.75
2022-08-17T01:43:39.093Z,21.64
2022-08-17T01:46:06.042Z,21.69
2022-08-17T01:48:34.885Z,21.76
2022-08-17T01:51:01.576Z,21.82
2022-08-17T01:53:36.721Z,21.87
2022-08-17T01:56:09.443Z,21.81
2022-08-17T01:58:37.111Z,21.85
2022-08-17T02:01:05.619Z,21.77
2022-08-17T02:03:34.558Z,21.67
2022-08-17T02:06:02.309Z,21.74
2022-08-17T02:08:39.300Z,21.80
2022-08-17T02:11:21.117Z,21.82
2022-08-17T02:13:57.958Z,21.85
2022-08-17T02:16:36.902Z,21.83
2022-08-17T02:19:08.130Z,21.62
2022-08-17T02:21:36.775Z,21.28
2022-08-17T02:24:05.434Z,21.13
2022-08-17T02:26:32.156Z,21.08
2022-08-17T02:28:58.722Z,21.18
2022-08-17T02:31:25.271Z,21.40
2022-08-17T02:34:00.469Z,21.35
2022-08-17T02:36:34.851Z,21.56
2022-08-17T02:39:04.769Z,21.62
2022-08-17T02:41:31.714Z,21.37
2022-08-17T02:43:58.659Z,21.48
2022-08-17T02:46:25.905Z,21.53
2022-08-17T02:48:52.441Z,21.62
2022-08-17T02:51:18.976Z,21.45
2022-08-17T02:53:46.761Z,21.37
2022-08-17T02:56:13.429Z,21.37
2022-08-17T02:58:40.078Z,21.47
2022-08-17T03:01:08.593Z,21.33
2022-08-17T03:03:36.687Z,21.57
2022-08-17T03:06:04.189Z,21.52
2022-08-17T03:08:30.993Z,21.57
2022-08-17T03:10:57.656Z,21.63
2022-08-17T03:13:24.505Z,21.61
2022-08-17T03:15:51.447Z,21.59
2022-08-17T03:18:25.565Z,21.62
2022-08-17T03:20:59.169Z,21.54
2022-08-17T03:23:27.443Z,21.54
2022-08-17T03:25:54.654Z,21.49
2022-08-17T03:28:22.341Z,21.45
2022-08-17T03:30:51.159Z,21.53
2022-08-17T03:33:18.611Z,21.50
2022-08-17T03:35:45.200Z,21.53
2022-08-17T03:38:15.056Z,21.54
2022-08-17T03:40:56.236Z,21.52
2022-08-17T03:43:30.773Z,21.47
2022-08-17T03:46:28.582Z,21.51
2022-08-17T03:49:20.199Z,21.55
2022-08-17T03:52:05.339Z,21.40
2022-08-17T03:54:50.265Z,21.23
2022-08-17T03:57:17.156Z,21.03
2022-08-17T03:59:45.144Z,21.04
2022-08-17T04:02:17.488Z,21.20
2022-08-17T04:04:44.753Z,21.19
2022-08-17T04:07:11.575Z,21.27
2022-08-17T04:09:38.194Z,21.19
2022-08-17T04:12:05.307Z,21.15
2022-08-17T04:14:51.571Z,21.29
2022-08-17T04:17:24.694Z,21.27
2022-08-17T04:19:51.316Z,21.32
2022-08-17T04:22:30.099Z,21.35
2022-08-17T04:25:01.588Z,21.35
2022-08-17T04:27:28.174Z,21.32
2022-08-17T04:29:56.131Z,21.27
2022-08-17T04:33:02.246Z,21.33
2022-08-17T04:35:09.995Z,21.26
2022-08-17T04:37:36.553Z,21.21
2022-08-17T04:40:22.314Z,21.17
2022-08-17T04:43:20.938Z,21.15
2022-08-17T04:45:57.114Z,21.13
2022-08-17T04:48:51.546Z,21.20
2022-08-17T04:51:28.067Z,21.15
2022-08-17T04:53:58.090Z,21.14
2022-08-17T04:56:26.419Z,21.10
2022-08-17T04:58:55.230Z,21.19
2022-08-17T05:01:24.647Z,21.16
2022-08-17T05:03:56.409Z,21.09
2022-08-17T05:06:23.976Z,21.03
2022-08-17T05:08:51.010Z,21.10
2022-08-17T05:11:18.201Z,21.03
2022-08-17T05:13:44.849Z,21.06
2022-08-17T05:16:12.044Z,20.99
2022-08-17T05:18:39.146Z,20.87
2022-08-17T05:21:06.957Z,20.86
2022-08-17T05:23:41.956Z,20.85
2022-08-17T05:26:25.909Z,21.00
2022-08-17T05:28:54.678Z,21.11
2022-08-17T05:31:24.591Z,21.14
2022-08-17T05:33:51.261Z,21.07
2022-08-17T05:36:43.579Z,20.92
2022-08-17T05:39:04.539Z,21.11
2022-08-17T05:41:31.141Z,21.13
2022-08-17T05:43:57.671Z,21.12
2022-08-17T05:46:27.565Z,20.98
2022-08-17T05:48:59.098Z,20.96
2022-08-17T05:52:08.815Z,20.94
2022-08-17T05:54:54.349Z,20.89
2022-08-17T05:58:04.032Z,21.05
2022-08-17T06:00:42.130Z,21.03
2022-08-17T06:03:46.504Z,21.14
2022-08-17T06:06:33.933Z,21.11
2022-08-17T06:09:35.014Z,21.21
2022-08-17T06:12:21.542Z,21.28
2022-08-17T06:15:19.476Z,21.05
2022-08-17T06:17:46.312Z,21.11
2022-08-17T06:20:15.541Z,21.00
2022-08-17T06:22:50.894Z,21.22
2022-08-17T06:25:23.350Z,21.20
2022-08-17T06:27:55.746Z,21.09
2022-08-17T06:30:28.403Z,21.16
2022-08-17T06:33:07.589Z,21.29
2022-08-17T06:35:49.012Z,21.29
2022-08-17T06:38:36.965Z,21.33
2022-08-17T06:41:29.848Z,21.35
2022-08-17T06:44:43.723Z,21.27
2022-08-17T06:47:11.126Z,21.43
2022-08-17T06:50:02.462Z,21.46
2022-08-17T06:52:56.058Z,21.41
2022-08-17T06:55:27.564Z,21.42
2022-08-17T06:57:59.989Z,21.50
2022-08-17T07:00:40.778Z,21.55
2022-08-17T07:03:25.967Z,21.47
2022-08-17T07:05:58.921Z,21.40
2022-08-17T07:08:50.608Z,21.36
2022-08-17T07:11:23.640Z,21.52
2022-08-17T07:14:22.639Z,21.60
2022-08-17T07:16:52.620Z,21.65
2022-08-17T07:19:22.605Z,21.60
2022-08-17T07:21:58.155Z,21.52
2022-08-17T07:24:38.375Z,21.53
2022-08-17T07:27:25.145Z,21.65
2022-08-17T07:30:10.640Z,21.68
2022-08-17T07:32:57.861Z,21.59
2022-08-17T07:35:31.206Z,21.52
2022-08-17T07:38:24.762Z,21.47
2022-08-17T07:40:57.763Z,21.56
2022-08-17T07:43:47.023Z,21.63
2022-08-17T07:46:37.444Z,21.52
2022-08-17T07:49:03.882Z,21.61
2022-08-17T07:51:45.825Z,21.57
2022-08-17T07:54:15.416Z,21.67
2022-08-17T07:57:00.529Z,21.73
2022-08-17T07:59:33.530Z,21.66
2022-08-17T08:02:07.225Z,21.76
2022-08-17T08:04:59.799Z,21.83
2022-08-17T08:07:34.832Z,21.83
2022-08-17T08:10:04.521Z,21.81
2022-08-17T08:12:46.930Z,21.73
2022-08-17T08:15:13.810Z,21.75
2022-08-17T08:17:55.670Z,21.82
2022-08-17T08:20:52.349Z,21.81
2022-08-17T08:23:29.581Z,21.91
2022-08-17T08:26:06.736Z,21.88
2022-08-17T08:28:47.167Z,21.99
2022-08-17T08:31:44.324Z,22.15
2022-08-17T08:35:00.836Z,22.11
2022-08-17T08:37:30.376Z,22.18
2022-08-17T08:40:20.317Z,22.17
2022-08-17T08:43:00.996Z,22.28
2022-08-17T08:45:56.699Z,22.31
2022-08-17T08:49:14.610Z,22.31
2022-08-17T08:51:55.489Z,22.43
2022-08-17T08:54:37.248Z,22.34
2022-08-17T08:57:27.800Z,22.42
2022-08-17T09:00:15.751Z,22.50
2022-08-17T09:03:17.615Z,22.50
2022-08-17T09:06:32.479Z,22.52
2022-08-17T09:09:45.359Z,22.55
2022-08-17T09:12:21.335Z,22.72
2022-08-17T09:15:18.008Z,22.82
2022-08-17T09:19:01.333Z,22.85
2022-08-17T09:21:08.069Z,22.89
2022-08-17T09:23:44.754Z,22.67
2022-08-17T09:26:26.311Z,22.29
2022-08-17T09:29:00.299Z,22.05
2022-08-17T09:31:49.257Z,22.32
2022-08-17T09:34:22.244Z,22.31
2022-08-17T09:37:20.647Z,22.45
2022-08-17T09:40:08.650Z,22.47
2022-08-17T09:42:49.497Z,22.41
2022-08-17T09:45:22.133Z,22.10
2022-08-17T09:48:12.418Z,21.92
2022-08-17T09:51:05.788Z,21.77
2022-08-17T09:53:35.822Z,21.89
2022-08-17T09:56:11.387Z,21.81
2022-08-17T09:58:47.690Z,22.29
2022-08-17T10:01:17.303Z,22.35
2022-08-17T10:04:05.062Z,22.38
2022-08-17T10:06:41.748Z,22.58
2022-08-17T10:09:37.260Z,22.67
2022-08-17T10:12:47.160Z,22.57
2022-08-17T10:15:21.928Z,22.51
2022-08-17T10:18:03.786Z,22.81
2022-08-17T10:20:39.277Z,23.05
2022-08-17T10:23:32.877Z,23.06
2022-08-17T10:26:07.069Z,23.17
2022-08-17T10:28:42.197Z,23.38
2022-08-17T10:34:27.877Z,23.60
2022-08-17T10:37:04.737Z,23.51
2022-08-17T10:40:08.954Z,23.49
2022-08-17T10:42:46.139Z,23.58
2022-08-17T10:45:26.235Z,23.74
2022-08-17T10:48:24.712Z,23.46
2022-08-17T10:51:08.748Z,23.61
2022-08-17T10:53:35.209Z,23.67
2022-08-17T10:56:14.341Z,23.82
2022-08-17T10:58:57.385Z,23.88
2022-08-17T11:01:33.238Z,23.85
2022-08-17T11:04:18.520Z,23.81
2022-08-17T11:07:02.301Z,23.94
2022-08-17T11:10:33.503Z,23.96
2022-08-17T11:13:18.407Z,23.90
2022-08-17T11:16:08.218Z,23.84
2022-08-17T11:19:22.182Z,23.71
2022-08-17T11:22:07.290Z,23.34
2022-08-17T11:24:33.720Z,23.07
2022-08-17T11:27:23.471Z,23.44
2022-08-17T11:30:01.531Z,23.57
2022-08-17T11:32:48.630Z,23.61
2022-08-17T11:35:21.760Z,23.63
2022-08-17T11:38:19.373Z,23.47
2022-08-17T11:40:51.919Z,23.45
2022-08-17T11:43:25.551Z,23.47
2022-08-17T11:45:58.310Z,23.37
2022-08-17T11:48:56.695Z,23.14
2022-08-17T11:51:33.912Z,23.13
2022-08-17T11:54:33.366Z,22.88
2022-08-17T11:57:26.458Z,23.03
2022-08-17T12:00:10.515Z,22.64
2022-08-17T12:03:16.483Z,22.72
2022-08-17T12:05:44.371Z,22.34
2022-08-17T12:08:16.552Z,22.50
2022-08-17T12:11:03.295Z,22.65
2022-08-17T12:13:39.821Z,22.72
2022-08-17T12:16:08.286Z,22.61
2022-08-17T12:18:37.599Z,22.57
2022-08-17T12:21:22.518Z,22.55
2022-08-17T12:24:01.335Z,22.13
2022-08-17T12:26:34.275Z,21.88
2022-08-17T12:29:18.363Z,22.29
2022-08-17T12:32:02.321Z,22.56
2022-08-17T12:34:36.522Z,22.24
2022-08-17T12:37:08.275Z,22.48
2022-08-17T12:39:34.930Z,22.34
2022-08-17T12:42:02.834Z,22.02
2022-08-17T12:44:32.813Z,22.39
2022-08-17T12:47:04.786Z,22.55
2022-08-17T12:49:36.630Z,22.54
2022-08-17T12:52:06.551Z,22.57
2022-08-17T12:54:53.658Z,22.62
2022-08-17T12:57:22.691Z,22.67
2022-08-17T12:59:54.442Z,22.70
2022-08-17T13:02:30.139Z,22.71
2022-08-17T13:04:59.360Z,22.74
2022-08-17T13:07:32.668Z,22.70
2022-08-17T13:09:59.273Z,22.70
2022-08-17T13:12:31.612Z,22.66
2022-08-17T13:14:58.846Z,22.67
2022-08-17T13:17:28.106Z,22.62
2022-08-17T13:19:54.811Z,22.58
2022-08-17T13:22:25.080Z,22.57
2022-08-17T13:24:56.095Z,22.46
2022-08-17T13:27:25.186Z,22.48
2022-08-17T13:29:57.206Z,22.46
2022-08-17T13:32:40.446Z,22.39
2022-08-17T13:35:39.214Z,22.26
2022-08-17T13:38:11.017Z,22.23
2022-08-17T13:40:53.254Z,22.37
2022-08-17T13:43:48.589Z,22.47
2022-08-17T13:46:25.180Z,22.43
2022-08-17T13:49:11.516Z,22.40
2022-08-17T13:51:47.025Z,22.40
2022-08-17T13:54:25.290Z,22.32
2022-08-17T13:57:02.498Z,22.38
2022-08-17T13:59:53.485Z,22.29
2022-08-17T14:02:25.941Z,22.39
2022-08-17T14:04:54.973Z,22.48
2022-08-17T14:07:29.769Z,22.32
2022-08-17T14:10:17.452Z,22.27
2022-08-17T14:12:45.656Z,22.51
2022-08-17T14:15:15.616Z,22.64
2022-08-17T14:17:42.239Z,22.61
2022-08-17T14:20:12.179Z,22.71
2022-08-17T14:22:43.934Z,22.63
2022-08-17T14:25:13.039Z,22.54
2022-08-17T14:27:41.743Z,22.57
2022-08-17T14:30:22.963Z,22.63
2022-08-17T14:32:52.108Z,22.79
2022-08-17T14:35:22.061Z,22.74
2022-08-17T14:37:49.563Z,22.74
2022-08-17T14:40:16.993Z,22.78
2022-08-17T14:42:46.033Z,22.76
2022-08-17T14:45:30.471Z,22.78
2022-08-17T14:48:00.004Z,22.80
2022-08-17T14:50:27.236Z,23.04
2022-08-17T14:52:56.361Z,23.03
2022-08-17T14:55:25.017Z,23.21
2022-08-17T14:57:51.775Z,23.45
2022-08-17T15:00:18.685Z,23.50
2022-08-17T15:02:50.934Z,23.54
2022-08-17T15:05:17.529Z,23.63
2022-08-17T15:07:44.649Z,23.42
2022-08-17T15:10:13.736Z,23.69
2022-08-17T15:12:40.864Z,23.63
2022-08-17T15:15:10.546Z,23.88
2022-08-17T15:17:44.206Z,24.00
2022-08-17T15:20:26.394Z,23.72
2022-08-17T15:22:56.128Z,23.86
2022-08-17T15:25:25.455Z,24.02
2022-08-17T15:27:52.647Z,23.74
2022-08-17T15:30:20.258Z,23.74
2022-08-17T15:32:54.388Z,23.92
2022-08-17T15:35:27.235Z,23.67
2022-08-17T15:37:56.979Z,23.90
2022-08-17T15:40:23.554Z,24.06
2022-08-17T15:42:51.137Z,24.09
2022-08-17T15:45:22.574Z,24.11
2022-08-17T15:47:49.377Z,24.20
2022-08-17T15:50:16.034Z,23.65
2022-08-17T15:52:44.911Z,23.93
2022-08-17T15:55:14.764Z,23.88
2022-08-17T15:57:41.326Z,23.83
2022-08-17T16:00:09.387Z,23.99
2022-08-17T16:03:13.703Z,24.01
2022-08-17T16:05:25.187Z,23.99
2022-08-17T16:07:53.187Z,24.03
2022-08-17T16:10:21.072Z,23.93
2022-08-17T16:12:49.806Z,24.09
2022-08-17T16:15:18.291Z,24.13
2022-08-17T16:17:45.148Z,24.16
2022-08-17T16:20:20.169Z,24.11
2022-08-17T16:22:48.780Z,24.01
2022-08-17T16:25:19.963Z,24.18
2022-08-17T16:27:48.865Z,24.18
2022-08-17T16:30:17.629Z,24.16
2022-08-17T16:32:44.461Z,24.23
2022-08-17T16:35:14.365Z,24.29
2022-08-17T16:37:41.758Z,24.08
2022-08-17T16:40:13.014Z,24.16
2022-08-17T16:42:40.172Z,24.03
2022-08-17T16:45:18.778Z,24.14
2022-08-17T16:47:45.410Z,23.95
2022-08-17T16:50:15.627Z,24.04
2022-08-17T16:52:43.597Z,24.34
2022-08-17T16:55:13.235Z,24.27
2022-08-17T16:57:47.480Z,24.35
2022-08-17T17:00:17.686Z,24.36
2022-08-17T17:02:47.325Z,24.36
2022-08-17T17:05:38.322Z,24.32
2022-08-17T17:08:09.221Z,24.40
2022-08-17T17:10:40.345Z,24.49
2022-08-17T17:13:20.999Z,24.22
2022-08-17T17:15:55.612Z,24.24
2022-08-17T17:18:31.147Z,23.91
2022-08-17T17:20:58.827Z,24.26
2022-08-17T17:23:37.317Z,24.39
2022-08-17T17:26:19.179Z,24.30
2022-08-17T17:29:18.356Z,24.24
2022-08-17T17:31:59.795Z,24.00
2022-08-17T17:34:29.674Z,24.20
2022-08-17T17:37:00.330Z,24.33
2022-08-17T17:39:55.810Z,24.34
2022-08-17T17:42:28.314Z,24.34
2022-08-17T17:45:09.266Z,24.34
2022-08-17T17:47:36.496Z,24.31
2022-08-17T17:50:06.158Z,24.25
2022-08-17T17:52:47.974Z,24.23
2022-08-17T17:55:39.572Z,24.17
2022-08-17T17:58:21.038Z,23.99
2022-08-17T18:01:19.359Z,23.99
2022-08-17T18:03:55.037Z,24.03
2022-08-17T18:06:33.339Z,24.02
2022-08-17T18:09:22.506Z,23.94
2022-08-17T18:12:08.781Z,23.94
2022-08-17T18:15:00.919Z,23.90
2022-08-17T18:17:29.899Z,23.88
2022-08-17T18:19:56.739Z,23.85
2022-08-17T18:22:23.960Z,23.81
2022-08-17T18:24:56.017Z,23.78
2022-08-17T18:27:40.769Z,23.72
2022-08-17T18:30:13.351Z,23.68
2022-08-17T18:32:42.512Z,23.61
2022-08-17T18:35:09.112Z,23.36
2022-08-17T18:38:08.057Z,23.40
2022-08-17T18:40:37.489Z,23.38
2022-08-17T18:43:26.952Z,22.99
2022-08-17T18:45:55.991Z,22.96
2022-08-17T18:48:25.508Z,23.07
2022-08-17T18:50:56.114Z,22.90
2022-08-17T18:53:33.536Z,22.99
2022-08-17T18:56:30.679Z,23.10
2022-08-17T18:59:04.184Z,22.95
2022-08-17T19:02:01.895Z,22.98
2022-08-17T19:04:42.621Z,23.03
2022-08-17T19:07:22.194Z,22.98
2022-08-17T19:09:54.846Z,22.90
2022-08-17T19:12:50.264Z,22.71
2022-08-17T19:15:35.543Z,22.63
2022-08-17T19:18:18.413Z,22.60
2022-08-17T19:20:49.689Z,22.49
2022-08-17T19:23:27.687Z,22.49
2022-08-17T19:26:00.739Z,22.25
2022-08-17T19:28:30.018Z,22.35
2022-08-17T19:30:59.590Z,22.34
2022-08-17T19:33:26.539Z,22.17
2022-08-17T19:36:43.129Z,21.96
2022-08-17T19:39:43.265Z,22.02
2022-08-17T19:42:31.191Z,22.12
2022-08-17T19:45:15.910Z,22.00
2022-08-17T19:48:12.470Z,22.21
2022-08-17T19:50:48.356Z,22.14
2022-08-17T19:53:24.058Z,22.01
2022-08-17T19:56:03.010Z,21.96
2022-08-17T19:59:01.394Z,22.00
2022-08-17T20:01:44.934Z,21.82
2022-08-17T20:04:20.968Z,21.88
2022-08-17T20:06:52.908Z,21.92
2022-08-17T20:09:33.616Z,21.95
2022-08-17T20:12:09.713Z,21.96
2022-08-17T20:14:41.750Z,21.96
2022-08-17T20:17:23.635Z,21.97
2022-08-17T20:20:07.552Z,21.98
2022-08-17T20:23:01.326Z,21.96
2022-08-17T20:25:39.266Z,21.93
2022-08-17T20:28:28.793Z,21.84
2022-08-17T20:30:59.596Z,21.81
2022-08-17T20:33:31.544Z,21.85
2022-08-17T20:36:22.517Z,21.88
2022-08-17T20:38:54.220Z,21.86
2022-08-17T20:41:29.656Z,21.85
2022-08-17T20:43:59.218Z,21.84
2022-08-17T20:46:32.771Z,21.67
2022-08-17T20:49:08.629Z,21.65
2022-08-17T20:52:00.777Z,21.41
2022-08-17T20:54:47.779Z,21.39
2022-08-17T20:57:44.138Z,21.50
2022-08-17T21:00:17.270Z,21.56
2022-08-17T21:02:52.072Z,21.51
2022-08-17T21:05:35.302Z,21.59
2022-08-17T21:08:15.679Z,21.54
2022-08-17T21:10:45.678Z,21.58
2022-08-17T21:13:15.458Z,21.50
2022-08-17T21:15:42.200Z,21.52
2022-08-17T21:18:17.237Z,21.25
2022-08-17T21:20:43.683Z,21.31
2022-08-17T21:23:42.952Z,21.23
2022-08-17T21:26:30.397Z,21.20
2022-08-17T21:29:29.702Z,21.32
2022-08-17T21:32:17.066Z,21.35
2022-08-17T21:35:07.293Z,21.38
2022-08-17T21:37:44.213Z,21.39
2022-08-17T21:40:10.783Z,21.29
2022-08-17T21:43:00.291Z,21.29
2022-08-17T21:45:32.032Z,21.23
2022-08-17T21:48:19.910Z,21.25
2022-08-17T21:50:57.538Z,21.27
2022-08-17T21:53:38.144Z,21.23
2022-08-17T21:56:06.642Z,21.15
2022-08-17T21:58:40.188Z,21.04
2022-08-17T22:01:23.873Z,21.12
2022-08-17T22:04:05.624Z,20.90
2022-08-17T22:06:43.205Z,20.87
2022-08-17T22:09:50.131Z,20.94
2022-08-17T22:12:22.238Z,20.84
2022-08-17T22:15:01.004Z,20.93
2022-08-17T22:17:29.198Z,20.95
2022-08-17T22:20:00.030Z,20.84
2022-08-17T22:22:56.310Z,21.01
2022-08-17T22:25:25.409Z,21.06
2022-08-17T22:27:56.564Z,20.99
2022-08-17T22:30:39.539Z,21.04
2022-08-17T22:33:37.304Z,20.64
2022-08-17T22:36:24.716Z,20.67
2022-08-17T22:39:02.408Z,20.77
2022-08-17T22:41:48.144Z,20.86
2022-08-17T22:44:15.185Z,20.90
2022-08-17T22:46:58.762Z,20.79
2022-08-17T22:49:30.758Z,20.82
2022-08-17T22:52:07.936Z,20.83
2022-08-17T22:54:52.981Z,20.81
2022-08-17T22:57:41.832Z,20.77
2022-08-17T23:00:29.448Z,20.79
2022-08-17T23:03:18.995Z,20.79
2022-08-17T23:06:07.266Z,20.75
2022-08-17T23:08:37.085Z,20.74
2022-08-17T23:11:06.251Z,20.71
2022-08-17T23:13:33.542Z,20.70
2022-08-17T23:16:00.144Z,20.68
2022-08-17T23:18:27.396Z,20.66
2022-08-17T23:20:54.290Z,20.62
2022-08-17T23:23:23.704Z,20.58
2022-08-17T23:25:50.634Z,20.56
2022-08-17T23:28:17.140Z,20.56
2022-08-17T23:30:44.737Z,20.53
2022-08-17T23:33:38.687Z,20.52
2022-08-17T23:36:09.834Z,20.50
2022-08-17T23:38:36.713Z,20.46
2022-08-17T23:41:10.813Z,20.43
2022-08-17T23:43:54.543Z,20.39
2022-08-17T23:46:25.030Z,20.29
2022-08-17T23:48:54.040Z,20.32
2022-08-17T23:51:25.006Z,20.31
2022-08-17T23:53:56.730Z,20.31
2022-08-17T23:56:26.302Z,20.26
2022-08-17T23:59:01.483Z,20.22
